createdAt,value
2022-12-02T00:00:02.117Z,8.20
2022-12-02T00:02:33.171Z,8.70
2022-12-02T00:05:12.186Z,10.80
2022-12-02T00:07:41.153Z,10.50
2022-12-02T00:10:27.576Z,9.40
2022-12-02T00:12:56.701Z,10.10
2022-12-02T00:15:41.461Z,10.90
2022-12-02T00:18:11.868Z,10.60
2022-12-02T00:20:42.133Z,10.20
2022-12-02T00:23:12.328Z,9.90
2022-12-02T00:25:42.109Z,9.40
2022-12-02T00:28:11.580Z,9.70
2022-12-02T00:30:41.521Z,9.40
2022-12-02T00:33:11.339Z,7.50
2022-12-02T00:35:41.204Z,8.30
2022-12-02T00:38:10.140Z,7.70
2022-12-02T00:40:39.105Z,8.20
2022-12-02T00:43:26.002Z,7.70
2022-12-02T00:46:14.219Z,8.40
2022-12-02T00:48:44.108Z,8.70
2022-12-02T00:51:13.028Z,7.90
2022-12-02T00:53:42.005Z,7.60
2022-12-02T00:56:10.964Z,7.00
2022-12-02T00:58:40.272Z,8.00
2022-12-02T01:01:09.895Z,9.30
2022-12-02T01:03:45.465Z,8.40
2022-12-02T01:06:15.180Z,7.80
2022-12-02T01:08:44.535Z,8.70
2022-12-02T01:11:13.895Z,9.00
2022-12-02T01:13:43.398Z,8.50
2022-12-02T01:16:13.838Z,8.30
2022-12-02T01:18:44.219Z,8.10
2022-12-02T01:21:15.630Z,8.10
2022-12-02T01:23:48.561Z,8.20
2022-12-02T01:26:18.569Z,7.50
2022-12-02T01:28:49.537Z,8.70
2022-12-02T01:31:20.518Z,7.10
2022-12-02T01:33:50.793Z,7.30
2022-12-02T01:36:20.162Z,8.40
2022-12-02T01:38:50.514Z,8.10
2022-12-02T01:41:20.116Z,8.20
2022-12-02T01:43:50.367Z,7.70
2022-12-02T01:46:21.664Z,8.20
2022-12-02T01:48:52.573Z,7.20
2022-12-02T01:51:23.847Z,7.90
2022-12-02T01:53:54.560Z,8.00
2022-12-02T01:56:24.162Z,7.50
2022-12-02T01:58:54.184Z,7.20
2022-12-02T02:01:29.598Z,7.90
2022-12-02T02:04:00.550Z,7.70
2022-12-02T02:06:32.211Z,8.70
2022-12-02T02:09:01.968Z,7.10
2022-12-02T02:11:33.364Z,8.00
2022-12-02T02:14:05.449Z,8.10
2022-12-02T02:22:39.863Z,8.60
2022-12-02T02:25:20.026Z,7.40
2022-12-02T02:27:56.776Z,6.70
2022-12-02T02:30:30.340Z,7.40
2022-12-02T02:33:04.730Z,7.50
2022-12-02T02:35:38.535Z,7.40
2022-12-02T02:38:13.131Z,7.60
2022-12-02T02:40:45.864Z,7.00
2022-12-02T02:43:19.629Z,7.90
2022-12-02T02:45:52.711Z,7.00
2022-12-02T02:48:25.572Z,8.90
2022-12-02T02:50:58.805Z,8.40
2022-12-02T02:53:31.176Z,9.10
2022-12-02T02:56:03.516Z,8.40
2022-12-02T02:58:36.657Z,9.10
2022-12-02T03:01:12.569Z,8.20
2022-12-02T03:03:47.059Z,7.70
2022-12-02T03:06:20.059Z,8.80
2022-12-02T03:08:52.717Z,8.30
2022-12-02T03:11:25.364Z,8.80
2022-12-02T03:13:59.062Z,8.40
2022-12-02T03:16:31.509Z,9.10
2022-12-02T03:19:06.160Z,9.50
2022-12-02T03:21:38.710Z,8.90
2022-12-02T03:24:11.583Z,7.10
2022-12-02T03:26:44.054Z,9.00
2022-12-02T03:29:16.708Z,8.60
2022-12-02T03:31:49.979Z,8.40
2022-12-02T03:34:22.236Z,8.60
2022-12-02T03:36:54.444Z,8.10
2022-12-02T03:39:26.727Z,7.90
2022-12-02T03:41:59.187Z,8.10
2022-12-02T03:44:31.678Z,7.70
2022-12-02T03:47:04.663Z,8.60
2022-12-02T03:49:38.047Z,7.40
2022-12-02T03:52:10.682Z,7.00
2022-12-02T03:54:43.045Z,7.50
2022-12-02T03:57:15.255Z,9.00
2022-12-02T03:59:47.607Z,7.20
2022-12-02T04:02:20.065Z,7.70
2022-12-02T04:04:52.658Z,8.00
2022-12-02T04:07:25.235Z,8.20
2022-12-02T04:09:57.534Z,7.70
2022-12-02T04:12:29.857Z,8.00
2022-12-02T04:15:02.077Z,7.70
2022-12-02T04:17:34.443Z,7.80
2022-12-02T04:20:07.425Z,7.40
2022-12-02T04:22:39.658Z,7.40
2022-12-02T04:25:12.416Z,8.90
2022-12-02T04:27:44.723Z,8.40
2022-12-02T04:30:17.383Z,7.40
2022-12-02T04:32:49.558Z,7.40
2022-12-02T04:35:21.768Z,7.70
2022-12-02T04:37:55.253Z,8.30
2022-12-02T04:40:27.800Z,7.80
2022-12-02T04:43:00.192Z,8.90
2022-12-02T04:45:32.512Z,9.00
2022-12-02T04:48:05.048Z,9.00
2022-12-02T04:50:37.290Z,8.10
2022-12-02T04:53:09.561Z,8.90
2022-12-02T04:55:43.657Z,8.70
2022-12-02T04:58:16.045Z,8.00
2022-12-02T05:00:48.259Z,8.50
2022-12-02T05:03:20.532Z,8.40
2022-12-02T05:05:52.830Z,9.70
2022-12-02T05:08:25.040Z,9.00
2022-12-02T05:10:57.363Z,10.00
2022-12-02T05:13:29.614Z,9.40
2022-12-02T05:16:01.895Z,9.90
2022-12-02T05:18:34.170Z,10.20
2022-12-02T05:21:06.938Z,9.20
2022-12-02T05:23:39.174Z,9.90
2022-12-02T05:26:12.307Z,10.30
2022-12-02T05:28:44.546Z,9.60
2022-12-02T05:31:16.823Z,9.70
2022-12-02T05:33:49.098Z,10.50
2022-12-02T05:36:21.327Z,10.20
2022-12-02T05:38:53.559Z,11.30
2022-12-02T05:41:25.756Z,10.80
2022-12-02T05:43:58.130Z,10.10
2022-12-02T05:46:31.122Z,12.20
2022-12-02T05:49:03.453Z,10.40
2022-12-02T05:51:35.702Z,10.70
2022-12-02T05:55:18.588Z,9.60
2022-12-02T05:57:51.482Z,11.50
2022-12-02T06:00:41.712Z,9.70
2022-12-02T06:03:20.952Z,9.40
2022-12-02T06:05:54.767Z,11.90
2022-12-02T06:08:37.850Z,11.80
2022-12-02T06:11:25.324Z,11.70
2022-12-02T06:14:00.099Z,11.40
2022-12-02T06:16:33.180Z,12.20
2022-12-02T06:19:09.624Z,11.00
2022-12-02T06:21:42.266Z,11.80
2022-12-02T06:24:15.096Z,12.20
2022-12-02T06:26:47.417Z,12.80
2022-12-02T06:29:21.236Z,12.20
2022-12-02T06:31:53.857Z,13.40
2022-12-02T06:37:01.786Z,10.00
2022-12-02T06:39:34.627Z,12.30
2022-12-02T06:42:15.871Z,12.90
2022-12-02T06:45:06.447Z,13.40
2022-12-02T06:48:04.074Z,11.90
2022-12-02T06:50:43.037Z,12.60
2022-12-02T06:53:26.364Z,14.00
2022-12-02T06:56:06.182Z,14.20
2022-12-02T06:58:41.982Z,12.90
2022-12-02T07:01:25.846Z,13.00
2022-12-02T07:04:16.848Z,13.00
2022-12-02T07:06:51.521Z,12.90
2022-12-02T07:09:27.641Z,12.60
2022-12-02T07:12:01.599Z,14.70
2022-12-02T07:14:38.983Z,13.90
2022-12-02T07:17:20.689Z,13.20
2022-12-02T07:19:56.054Z,14.60
2022-12-02T07:22:33.313Z,14.10
2022-12-02T07:25:29.730Z,15.80
2022-12-02T07:28:27.068Z,14.10
2022-12-02T07:31:03.165Z,16.40
2022-12-02T07:33:35.498Z,13.90
2022-12-02T07:36:08.757Z,14.40
2022-12-02T07:41:36.916Z,13.90
2022-12-02T07:44:10.355Z,14.30
2022-12-02T07:49:13.122Z,14.30
2022-12-02T07:51:45.383Z,13.40
2022-12-02T07:54:17.856Z,15.50
2022-12-02T07:59:20.947Z,14.30
2022-12-02T08:01:53.257Z,13.10
2022-12-02T08:04:25.654Z,15.00
2022-12-02T08:06:58.001Z,15.10
2022-12-02T08:09:30.308Z,14.70
2022-12-02T08:12:02.698Z,14.00
2022-12-02T08:14:35.064Z,13.10
2022-12-02T08:17:07.411Z,13.70
2022-12-02T08:19:41.491Z,14.60
2022-12-02T08:22:14.057Z,15.20
2022-12-02T08:27:16.963Z,14.20
2022-12-02T08:29:50.087Z,14.20
2022-12-02T08:32:22.939Z,13.70
2022-12-02T08:34:55.621Z,14.20
2022-12-02T08:37:28.116Z,14.30
2022-12-02T08:40:00.581Z,15.10
2022-12-02T08:45:03.864Z,14.60
2022-12-02T08:50:08.968Z,13.40
2022-12-02T08:52:43.200Z,15.40
2022-12-02T08:55:15.630Z,14.80
2022-12-02T08:57:47.894Z,15.30
2022-12-02T09:00:21.115Z,15.50
2022-12-02T09:02:53.555Z,15.50
2022-12-02T09:05:25.857Z,15.80
2022-12-02T09:07:58.272Z,14.70
2022-12-02T09:10:34.774Z,13.70
2022-12-02T09:13:08.998Z,15.10
2022-12-02T09:15:41.309Z,15.70
2022-12-02T09:18:14.751Z,15.90
2022-12-02T09:20:48.565Z,15.20
2022-12-02T09:23:20.963Z,14.90
2022-12-02T09:25:53.774Z,16.10
2022-12-02T09:28:26.062Z,15.20
2022-12-02T09:30:58.574Z,14.50
2022-12-02T09:33:33.912Z,14.90
2022-12-02T09:36:08.121Z,14.90
2022-12-02T09:38:40.680Z,14.10
2022-12-02T09:41:12.944Z,14.80
2022-12-02T09:43:45.446Z,14.00
2022-12-02T09:46:24.190Z,15.00
2022-12-02T09:48:57.130Z,14.20
2022-12-02T09:51:29.500Z,14.00
2022-12-02T09:54:01.912Z,13.90
2022-12-02T09:56:34.286Z,15.20
2022-12-02T09:59:11.471Z,14.60
2022-12-02T10:01:47.828Z,13.80
2022-12-02T10:04:22.545Z,14.20
2022-12-02T10:06:55.784Z,14.40
2022-12-02T10:09:30.344Z,14.00
2022-12-02T10:12:03.520Z,13.40
2022-12-02T10:14:35.725Z,13.40
2022-12-02T10:17:14.333Z,12.90
2022-12-02T10:19:47.025Z,13.30
2022-12-02T10:24:51.447Z,12.80
2022-12-02T10:27:28.795Z,12.30
2022-12-02T10:30:17.638Z,12.50
2022-12-02T10:33:01.823Z,12.70
2022-12-02T10:35:46.634Z,13.30
2022-12-02T10:38:39.740Z,12.70
2022-12-02T10:44:13.996Z,10.20
2022-12-02T10:46:46.536Z,12.10
2022-12-02T10:49:35.917Z,11.90
2022-12-02T10:52:11.220Z,11.80
2022-12-02T10:54:47.364Z,13.20
2022-12-02T10:57:24.959Z,12.90
2022-12-02T10:59:59.790Z,12.70
2022-12-02T11:02:35.734Z,11.30
2022-12-02T11:05:16.850Z,11.70
2022-12-02T11:07:57.278Z,11.80
2022-12-02T11:10:35.310Z,11.00
2022-12-02T11:13:31.262Z,11.30
2022-12-02T11:16:33.883Z,11.90
2022-12-02T11:19:14.032Z,11.10
2022-12-02T11:21:46.759Z,11.80
2022-12-02T11:24:39.382Z,11.00
2022-12-02T11:27:18.495Z,11.00
2022-12-02T11:30:21.336Z,11.80
2022-12-02T11:32:53.659Z,11.00
2022-12-02T11:36:03.880Z,11.40
2022-12-02T11:38:48.838Z,11.70
2022-12-02T11:41:21.867Z,11.50
2022-12-02T11:44:09.321Z,11.60
2022-12-02T11:46:59.168Z,11.90
2022-12-02T11:49:36.603Z,10.10
2022-12-02T11:52:18.990Z,11.00
2022-12-02T11:54:58.807Z,11.50
2022-12-02T11:57:33.022Z,11.50
2022-12-02T12:00:06.325Z,10.40
2022-12-02T12:02:38.640Z,12.50
2022-12-02T12:05:12.715Z,10.60
2022-12-02T12:07:48.083Z,11.90
2022-12-02T12:10:29.204Z,10.80
2022-12-02T12:13:24.902Z,11.40
2022-12-02T12:15:59.825Z,11.40
2022-12-02T12:18:54.303Z,9.10
2022-12-02T12:21:45.944Z,11.30
2022-12-02T12:24:35.017Z,11.70
2022-12-02T12:27:35.013Z,11.40
2022-12-02T12:30:09.049Z,10.70
2022-12-02T12:32:41.367Z,10.20
2022-12-02T12:35:13.833Z,10.70
2022-12-02T12:37:46.061Z,11.10
2022-12-02T12:40:18.965Z,11.90
2022-12-02T12:42:51.441Z,11.00
2022-12-02T12:45:23.683Z,11.40
2022-12-02T12:47:55.903Z,11.20
2022-12-02T12:50:30.125Z,11.60
2022-12-02T12:53:02.717Z,10.00
2022-12-02T12:55:35.317Z,10.70
2022-12-02T12:58:08.715Z,11.40
2022-12-02T13:00:41.414Z,9.50
2022-12-02T13:03:16.449Z,10.00
2022-12-02T13:05:48.906Z,10.50
2022-12-02T13:08:23.547Z,10.40
2022-12-02T13:10:56.933Z,10.00
2022-12-02T13:13:30.307Z,10.80
2022-12-02T13:16:03.150Z,10.80
2022-12-02T13:18:35.872Z,10.40
2022-12-02T13:23:39.503Z,10.30
2022-12-02T13:26:15.497Z,10.60
2022-12-02T13:28:47.972Z,10.20
2022-12-02T13:31:20.505Z,10.90
2022-12-02T13:33:54.855Z,9.10
2022-12-02T13:36:29.145Z,11.30
2022-12-02T13:39:06.228Z,10.10
2022-12-02T13:41:40.224Z,10.60
2022-12-02T13:44:13.431Z,10.30
2022-12-02T13:46:46.310Z,9.70
2022-12-02T13:49:19.041Z,10.20
2022-12-02T13:54:23.472Z,9.70
2022-12-02T13:56:57.214Z,9.40
2022-12-02T13:59:34.410Z,10.00
2022-12-02T14:02:11.150Z,9.10
2022-12-02T14:04:44.184Z,9.20
2022-12-02T14:07:16.596Z,10.60
2022-12-02T14:09:48.766Z,9.00
2022-12-02T14:12:20.971Z,10.60
2022-12-02T14:14:53.345Z,10.80
2022-12-02T14:17:27.943Z,10.30
2022-12-02T14:20:00.395Z,10.50
2022-12-02T14:22:34.041Z,10.50
2022-12-02T14:25:06.910Z,10.30
2022-12-02T14:27:41.733Z,10.50
2022-12-02T14:30:16.891Z,10.20
2022-12-02T14:32:50.224Z,10.50
2022-12-02T14:35:22.891Z,9.40
2022-12-02T14:40:29.858Z,10.40
2022-12-02T14:43:02.017Z,10.00
2022-12-02T14:45:34.951Z,9.50
2022-12-02T14:48:08.549Z,10.70
2022-12-02T14:50:41.532Z,10.60
2022-12-02T14:53:15.949Z,11.50
2022-12-02T14:55:49.922Z,10.90
2022-12-02T14:58:23.185Z,11.40
2022-12-02T15:00:56.083Z,11.80
2022-12-02T15:03:29.573Z,11.20
2022-12-02T15:06:02.603Z,12.20
2022-12-02T15:08:36.524Z,11.30
2022-12-02T15:11:09.547Z,12.80
2022-12-02T15:13:43.016Z,11.70
2022-12-02T15:23:35.206Z,12.00
2022-12-02T15:26:08.880Z,12.30
2022-12-02T15:28:42.611Z,12.40
2022-12-02T15:38:05.103Z,11.50
2022-12-02T15:40:39.321Z,11.50
2022-12-02T15:43:12.447Z,12.20
2022-12-02T15:45:45.317Z,12.20
2022-12-02T15:48:17.572Z,13.00
2022-12-02T15:50:54.691Z,13.40
2022-12-02T15:53:28.142Z,12.70
2022-12-02T15:56:00.361Z,13.20
2022-12-02T15:58:32.488Z,12.60
2022-12-02T16:01:04.933Z,12.90
2022-12-02T16:03:38.199Z,13.40
2022-12-02T16:06:11.083Z,14.20
2022-12-02T16:08:44.158Z,13.50
2022-12-02T16:11:16.578Z,13.40
2022-12-02T16:13:49.771Z,13.60
2022-12-02T16:16:25.274Z,12.80
2022-12-02T16:18:57.493Z,12.40
2022-12-02T16:21:30.185Z,12.30
2022-12-02T16:26:33.184Z,12.50
2022-12-02T16:29:05.391Z,11.90
2022-12-02T16:31:38.286Z,13.10
2022-12-02T16:34:10.692Z,12.90
2022-12-02T16:36:44.181Z,12.30
2022-12-02T16:39:16.490Z,14.80
2022-12-02T16:41:48.862Z,12.00
2022-12-02T16:44:21.459Z,12.70
2022-12-02T16:49:24.411Z,12.80
2022-12-02T16:51:57.916Z,13.00
2022-12-02T16:54:30.220Z,13.10
2022-12-02T16:57:02.512Z,12.90
2022-12-02T16:59:34.873Z,13.30
2022-12-02T17:02:07.228Z,13.20
2022-12-02T17:04:39.578Z,12.90
2022-12-02T17:07:12.220Z,12.60
2022-12-02T17:12:14.897Z,13.80
2022-12-02T17:14:52.040Z,12.90
2022-12-02T17:20:19.393Z,13.70
2022-12-02T17:22:51.704Z,13.90
2022-12-02T17:25:24.501Z,13.80
2022-12-02T17:30:27.418Z,13.30
2022-12-02T17:32:59.727Z,12.90
2022-12-02T17:35:32.021Z,14.30
2022-12-02T17:38:05.242Z,14.50
2022-12-02T17:40:37.564Z,13.70
2022-12-02T17:43:09.787Z,13.00
2022-12-02T17:45:42.215Z,12.80
2022-12-02T17:48:14.686Z,13.50
2022-12-02T17:50:46.911Z,14.60
2022-12-02T17:53:19.904Z,14.30
2022-12-02T17:55:52.138Z,14.50
2022-12-02T17:58:24.506Z,13.10
2022-12-02T18:00:56.805Z,13.00
2022-12-02T18:03:29.069Z,13.90
2022-12-02T18:06:01.305Z,14.30
2022-12-02T18:08:33.656Z,15.10
2022-12-02T18:11:06.287Z,14.40
2022-12-02T18:16:10.265Z,14.00
2022-12-02T18:18:42.574Z,14.50
2022-12-02T18:21:14.805Z,16.10
2022-12-02T18:23:48.239Z,15.40
2022-12-02T18:26:20.410Z,16.00
2022-12-02T18:28:52.679Z,14.90
2022-12-02T18:31:24.977Z,14.50
2022-12-02T18:36:06.382Z,16.70
2022-12-02T18:38:38.796Z,16.10
2022-12-02T18:41:11.496Z,15.90
2022-12-02T18:43:43.691Z,17.10
2022-12-02T18:46:16.128Z,16.40
2022-12-02T18:48:48.418Z,16.00
2022-12-02T18:51:21.413Z,17.50
2022-12-02T18:53:53.819Z,16.70
2022-12-02T18:56:26.168Z,17.70
2022-12-02T18:58:58.319Z,17.60
2022-12-02T19:01:33.992Z,18.30
2022-12-02T19:04:07.173Z,17.70
2022-12-02T19:09:10.105Z,17.90
2022-12-02T19:11:42.376Z,19.40
2022-12-02T19:14:14.573Z,19.80
2022-12-02T19:19:18.069Z,17.70
2022-12-02T19:21:50.297Z,18.00
2022-12-02T19:24:22.626Z,17.70
2022-12-02T19:26:54.860Z,17.40
2022-12-02T19:29:27.097Z,17.20
2022-12-02T19:31:59.346Z,18.30
2022-12-02T19:34:31.697Z,17.50
2022-12-02T19:37:03.992Z,17.40
2022-12-02T19:39:36.325Z,17.80
2022-12-02T19:42:08.796Z,17.90
2022-12-02T19:44:41.095Z,18.90
2022-12-02T19:47:13.347Z,19.20
2022-12-02T19:49:45.576Z,19.40
2022-12-02T19:52:19.324Z,18.20
2022-12-02T19:54:52.077Z,21.60
2022-12-02T19:57:31.860Z,18.40
2022-12-02T20:00:04.689Z,18.40
2022-12-02T20:02:38.512Z,19.10
2022-12-02T20:05:12.322Z,20.40
2022-12-02T20:07:45.186Z,20.30
2022-12-02T20:10:17.838Z,19.30
2022-12-02T20:12:50.341Z,22.00
2022-12-02T20:15:22.806Z,20.60
2022-12-02T20:17:54.990Z,20.70
2022-12-02T20:20:27.237Z,21.40
2022-12-02T20:22:59.407Z,19.60
2022-12-02T20:25:31.832Z,20.70
2022-12-02T20:28:04.162Z,19.70
2022-12-02T20:30:36.478Z,20.30
2022-12-02T20:33:08.738Z,20.60
2022-12-02T20:35:41.737Z,20.70
2022-12-02T20:38:14.000Z,21.70
2022-12-02T20:40:46.179Z,21.50
2022-12-02T20:43:18.366Z,23.00
2022-12-02T20:45:51.441Z,21.50
2022-12-02T20:48:23.691Z,21.80
2022-12-02T20:50:55.981Z,22.80
2022-12-02T20:53:28.333Z,23.20
2022-12-02T20:56:01.416Z,24.60
2022-12-02T20:58:33.793Z,25.50
2022-12-02T21:01:12.008Z,24.50
2022-12-02T21:03:45.086Z,25.30
2022-12-02T21:06:17.402Z,23.40
2022-12-02T21:08:50.547Z,19.90
2022-12-02T21:11:22.926Z,18.50
2022-12-02T21:13:55.288Z,18.20
2022-12-02T21:16:27.770Z,18.20
2022-12-02T21:19:00.205Z,16.90
2022-12-02T21:21:32.585Z,17.00
2022-12-02T21:24:05.112Z,17.00
2022-12-02T21:26:37.538Z,17.20
2022-12-02T21:29:10.431Z,17.20
2022-12-02T21:31:42.912Z,17.30
2022-12-02T21:34:15.630Z,17.10
2022-12-02T21:36:48.029Z,17.10
2022-12-02T21:39:21.133Z,19.00
2022-12-02T21:41:53.404Z,17.80
2022-12-02T21:44:25.757Z,21.20
2022-12-02T21:46:58.132Z,21.70
2022-12-02T21:49:30.925Z,21.90
2022-12-02T21:52:03.244Z,20.30
2022-12-02T21:57:08.304Z,19.00
2022-12-02T21:59:40.650Z,15.90
2022-12-02T22:02:15.107Z,18.90
2022-12-02T22:04:48.229Z,20.10
2022-12-02T22:07:37.995Z,20.70
2022-12-02T22:10:14.178Z,21.70
2022-12-02T22:12:47.089Z,20.50
2022-12-02T22:15:21.040Z,20.00
2022-12-02T22:17:53.316Z,19.90
2022-12-02T22:20:25.501Z,19.90
2022-12-02T22:22:57.800Z,19.60
2022-12-02T22:25:30.010Z,20.80
2022-12-02T22:28:02.189Z,20.10
2022-12-02T22:30:34.385Z,20.20
2022-12-02T22:33:06.745Z,19.60
2022-12-02T22:35:39.789Z,21.10
2022-12-02T22:38:15.293Z,19.80
2022-12-02T22:40:52.533Z,19.60
2022-12-02T22:43:25.124Z,21.40
2022-12-02T22:48:28.469Z,20.70
2022-12-02T22:53:32.149Z,21.10
2022-12-02T22:56:04.846Z,20.80
2022-12-02T22:58:37.161Z,21.10
2022-12-02T23:01:09.855Z,18.60
2022-12-02T23:03:42.167Z,20.90
2022-12-02T23:06:14.557Z,22.50
2022-12-02T23:08:46.853Z,21.00
2022-12-02T23:11:19.239Z,22.10
2022-12-02T23:13:51.713Z,20.40
2022-12-02T23:16:24.196Z,20.50
2022-12-02T23:18:57.488Z,21.30
2022-12-02T23:21:29.824Z,21.20
2022-12-02T23:24:02.240Z,20.40
2022-12-02T23:26:34.976Z,22.00
2022-12-02T23:29:07.399Z,21.10
2022-12-02T23:31:39.773Z,21.50
2022-12-02T23:34:13.558Z,22.00
2022-12-02T23:36:45.846Z,19.30
2022-12-02T23:39:18.234Z,20.10
2022-12-02T23:41:50.956Z,21.90
2022-12-02T23:44:23.287Z,21.20
2022-12-02T23:46:55.572Z,20.40
2022-12-02T23:49:27.997Z,19.10
2022-12-02T23:52:00.554Z,20.70
2022-12-02T23:54:32.890Z,20.10
2022-12-02T23:57:05.260Z,20.40
2022-12-02T23:59:37.801Z,21.90
